sensor_id;sensor_type;location;lat;lon;timestamp;temperature;humidity
48043;DHT22;33988;47.992;8.820;2023-11-19T00:00:30;13.70;58.60
48043;DHT22;33988;47.992;8.820;2023-11-19T00:02:57;13.70;58.70
48043;DHT22;33988;47.992;8.820;2023-11-19T00:05:24;13.70;58.70
48043;DHT22;33988;47.992;8.820;2023-11-19T00:07:51;13.70;58.60
48043;DHT22;33988;47.992;8.820;2023-11-19T00:10:18;13.80;58.70
48043;DHT22;33988;47.992;8.820;2023-11-19T00:12:50;13.80;58.70
48043;DHT22;33988;47.992;8.820;2023-11-19T00:15:19;13.80;58.70
48043;DHT22;33988;47.992;8.820;2023-11-19T00:17:50;13.80;58.70
48043;DHT22;33988;47.992;8.820;2023-11-19T00:20:20;13.60;58.90
48043;DHT22;33988;47.992;8.820;2023-11-19T00:22:52;13.80;58.70
48043;DHT22;33988;47.992;8.820;2023-11-19T00:25:20;13.80;58.60
48043;DHT22;33988;47.992;8.820;2023-11-19T00:27:52;13.90;58.70
48043;DHT22;33988;47.992;8.820;2023-11-19T00:30:20;13.90;58.70
48043;DHT22;33988;47.992;8.820;2023-11-19T00:32:49;13.90;58.70
48043;DHT22;33988;47.992;8.820;2023-11-19T00:35:16;13.90;58.70
48043;DHT22;33988;47.992;8.820;2023-11-19T00:37:46;13.90;58.70
48043;DHT22;33988;47.992;8.820;2023-11-19T00:40:14;13.90;58.70
48043;DHT22;33988;47.992;8.820;2023-11-19T00:42:43;13.90;58.80
48043;DHT22;33988;47.992;8.820;2023-11-19T00:45:10;13.90;58.80
48043;DHT22;33988;47.992;8.820;2023-11-19T00:47:39;14.00;58.80
48043;DHT22;33988;47.992;8.820;2023-11-19T00:50:08;13.90;58.80
48043;DHT22;33988;47.992;8.820;2023-11-19T00:52:37;14.00;58.80
48043;DHT22;33988;47.992;8.820;2023-11-19T00:55:05;14.00;58.90
48043;DHT22;33988;47.992;8.820;2023-11-19T00:57:37;14.00;58.90
48043;DHT22;33988;47.992;8.820;2023-11-19T01:00:07;14.00;58.90
48043;DHT22;33988;47.992;8.820;2023-11-19T01:02:54;13.90;59.00
48043;DHT22;33988;47.992;8.820;2023-11-19T01:05:24;13.90;59.00
48043;DHT22;33988;47.992;8.820;2023-11-19T01:07:53;14.00;59.00
48043;DHT22;33988;47.992;8.820;2023-11-19T01:10:23;14.00;59.00
48043;DHT22;33988;47.992;8.820;2023-11-19T01:12:51;14.00;59.00
48043;DHT22;33988;47.992;8.820;2023-11-19T01:15:19;14.00;59.00
48043;DHT22;33988;47.992;8.820;2023-11-19T01:17:46;14.10;59.00
48043;DHT22;33988;47.992;8.820;2023-11-19T01:20:22;14.10;59.10
48043;DHT22;33988;47.992;8.820;2023-11-19T01:22:53;14.10;59.00
48043;DHT22;33988;47.992;8.820;2023-11-19T01:25:20;14.10;59.00
48043;DHT22;33988;47.992;8.820;2023-11-19T01:27:47;14.20;59.10
48043;DHT22;33988;47.992;8.820;2023-11-19T01:30:19;14.20;59.10
48043;DHT22;33988;47.992;8.820;2023-11-19T01:32:46;14.20;59.10
48043;DHT22;33988;47.992;8.820;2023-11-19T01:35:13;14.20;59.10
48043;DHT22;33988;47.992;8.820;2023-11-19T01:37:41;14.20;59.10
48043;DHT22;33988;47.992;8.820;2023-11-19T01:40:08;14.20;59.10
48043;DHT22;33988;47.992;8.820;2023-11-19T01:42:41;14.20;59.20
48043;DHT22;33988;47.992;8.820;2023-11-19T01:45:08;14.20;59.20
48043;DHT22;33988;47.992;8.820;2023-11-19T01:47:37;14.30;59.30
48043;DHT22;33988;47.992;8.820;2023-11-19T01:50:07;14.30;59.30
48043;DHT22;33988;47.992;8.820;2023-11-19T01:52:36;14.30;59.40
48043;DHT22;33988;47.992;8.820;2023-11-19T01:55:04;14.30;59.40
48043;DHT22;33988;47.992;8.820;2023-11-19T01:57:36;14.30;59.40
48043;DHT22;33988;47.992;8.820;2023-11-19T02:00:09;14.30;59.50
48043;DHT22;33988;47.992;8.820;2023-11-19T02:02:49;14.40;59.50
48043;DHT22;33988;47.992;8.820;2023-11-19T02:05:19;14.30;59.50
48043;DHT22;33988;47.992;8.820;2023-11-19T02:07:52;14.30;59.40
48043;DHT22;33988;47.992;8.820;2023-11-19T02:10:19;14.30;59.50
48043;DHT22;33988;47.992;8.820;2023-11-19T02:12:48;14.40;59.40
48043;DHT22;33988;47.992;8.820;2023-11-19T02:15:16;14.40;59.40
48043;DHT22;33988;47.992;8.820;2023-11-19T02:17:45;14.40;59.40
48043;DHT22;33988;47.992;8.820;2023-11-19T02:20:14;14.40;59.40
48043;DHT22;33988;47.992;8.820;2023-11-19T02:22:47;14.40;59.40
48043;DHT22;33988;47.992;8.820;2023-11-19T02:25:23;14.40;59.40
48043;DHT22;33988;47.992;8.820;2023-11-19T02:28:01;14.40;59.40
48043;DHT22;33988;47.992;8.820;2023-11-19T02:30:31;14.40;59.50
48043;DHT22;33988;47.992;8.820;2023-11-19T02:33:01;14.40;59.40
48043;DHT22;33988;47.992;8.820;2023-11-19T02:35:34;14.40;59.50
48043;DHT22;33988;47.992;8.820;2023-11-19T02:38:04;14.40;59.50
48043;DHT22;33988;47.992;8.820;2023-11-19T02:40:33;14.40;59.50
48043;DHT22;33988;47.992;8.820;2023-11-19T02:43:02;14.40;59.50
48043;DHT22;33988;47.992;8.820;2023-11-19T02:45:32;14.50;59.50
48043;DHT22;33988;47.992;8.820;2023-11-19T02:47:59;14.50;59.50
48043;DHT22;33988;47.992;8.820;2023-11-19T02:50:28;14.50;59.50
48043;DHT22;33988;47.992;8.820;2023-11-19T02:52:56;14.50;59.50
48043;DHT22;33988;47.992;8.820;2023-11-19T02:55:28;14.50;59.40
48043;DHT22;33988;47.992;8.820;2023-11-19T02:57:57;14.50;59.40
48043;DHT22;33988;47.992;8.820;2023-11-19T03:00:29;14.50;59.50
48043;DHT22;33988;47.992;8.820;2023-11-19T03:03:03;14.60;59.50
48043;DHT22;33988;47.992;8.820;2023-11-19T03:05:48;14.60;59.50
48043;DHT22;33988;47.992;8.820;2023-11-19T03:08:15;14.60;59.50
48043;DHT22;33988;47.992;8.820;2023-11-19T03:10:49;14.60;59.50
48043;DHT22;33988;47.992;8.820;2023-11-19T03:13:21;14.60;59.50
48043;DHT22;33988;47.992;8.820;2023-11-19T03:15:48;14.60;59.50
48043;DHT22;33988;47.992;8.820;2023-11-19T03:18:20;14.60;59.50
48043;DHT22;33988;47.992;8.820;2023-11-19T03:20:49;14.60;59.50
48043;DHT22;33988;47.992;8.820;2023-11-19T03:23:16;14.60;59.50
48043;DHT22;33988;47.992;8.820;2023-11-19T03:25:45;14.70;59.50
48043;DHT22;33988;47.992;8.820;2023-11-19T03:28:12;14.70;59.50
48043;DHT22;33988;47.992;8.820;2023-11-19T03:30:40;14.70;59.50
48043;DHT22;33988;47.992;8.820;2023-11-19T03:33:14;14.70;59.60
48043;DHT22;33988;47.992;8.820;2023-11-19T03:35:41;14.70;59.60
48043;DHT22;33988;47.992;8.820;2023-11-19T03:38:08;14.70;59.60
48043;DHT22;33988;47.992;8.820;2023-11-19T03:40:38;14.70;60.40
48043;DHT22;33988;47.992;8.820;2023-11-19T03:43:08;14.70;59.70
48043;DHT22;33988;47.992;8.820;2023-11-19T03:45:38;14.70;59.70
48043;DHT22;33988;47.992;8.820;2023-11-19T03:48:05;14.70;59.80
48043;DHT22;33988;47.992;8.820;2023-11-19T03:50:32;14.70;59.80
48043;DHT22;33988;47.992;8.820;2023-11-19T03:53:00;14.70;59.80
48043;DHT22;33988;47.992;8.820;2023-11-19T03:55:27;14.70;59.80
48043;DHT22;33988;47.992;8.820;2023-11-19T03:57:54;14.70;59.70
48043;DHT22;33988;47.992;8.820;2023-11-19T04:00:23;14.70;59.80
48043;DHT22;33988;47.992;8.820;2023-11-19T04:02:54;14.70;59.80
48043;DHT22;33988;47.992;8.820;2023-11-19T04:05:23;14.60;59.70
48043;DHT22;33988;47.992;8.820;2023-11-19T04:07:50;14.60;59.80
48043;DHT22;33988;47.992;8.820;2023-11-19T04:10:17;14.60;59.90
48043;DHT22;33988;47.992;8.820;2023-11-19T04:12:45;14.60;59.90
48043;DHT22;33988;47.992;8.820;2023-11-19T04:15:13;14.60;60.00
48043;DHT22;33988;47.992;8.820;2023-11-19T04:17:42;14.60;60.00
48043;DHT22;33988;47.992;8.820;2023-11-19T04:20:10;14.50;60.00
48043;DHT22;33988;47.992;8.820;2023-11-19T04:22:43;14.50;60.10
48043;DHT22;33988;47.992;8.820;2023-11-19T04:25:10;14.50;60.10
48043;DHT22;33988;47.992;8.820;2023-11-19T04:27:42;14.50;60.10
48043;DHT22;33988;47.992;8.820;2023-11-19T04:30:09;14.50;60.20
48043;DHT22;33988;47.992;8.820;2023-11-19T04:32:41;14.60;60.20
48043;DHT22;33988;47.992;8.820;2023-11-19T04:35:08;14.60;60.20
48043;DHT22;33988;47.992;8.820;2023-11-19T04:37:38;14.60;60.20
48043;DHT22;33988;47.992;8.820;2023-11-19T04:40:06;14.60;60.20
48043;DHT22;33988;47.992;8.820;2023-11-19T04:42:33;14.70;60.20
48043;DHT22;33988;47.992;8.820;2023-11-19T04:45:00;14.70;60.20
48043;DHT22;33988;47.992;8.820;2023-11-19T04:47:35;14.70;60.10
48043;DHT22;33988;47.992;8.820;2023-11-19T04:50:06;14.60;60.40
48043;DHT22;33988;47.992;8.820;2023-11-19T04:52:40;14.70;60.10
48043;DHT22;33988;47.992;8.820;2023-11-19T04:55:10;14.70;60.00
48043;DHT22;33988;47.992;8.820;2023-11-19T04:57:38;14.80;60.10
48043;DHT22;33988;47.992;8.820;2023-11-19T05:00:06;14.80;60.10
48043;DHT22;33988;47.992;8.820;2023-11-19T05:02:37;14.80;60.10
48043;DHT22;33988;47.992;8.820;2023-11-19T05:05:07;14.80;60.10
48043;DHT22;33988;47.992;8.820;2023-11-19T05:07:35;14.90;60.20
48043;DHT22;33988;47.992;8.820;2023-11-19T05:10:05;14.70;60.60
48043;DHT22;33988;47.992;8.820;2023-11-19T05:12:33;14.80;60.20
48043;DHT22;33988;47.992;8.820;2023-11-19T05:15:00;14.90;60.30
48043;DHT22;33988;47.992;8.820;2023-11-19T05:17:27;14.90;60.40
48043;DHT22;33988;47.992;8.820;2023-11-19T05:19:55;14.90;61.30
48043;DHT22;33988;47.992;8.820;2023-11-19T05:22:22;14.90;60.60
48043;DHT22;33988;47.992;8.820;2023-11-19T05:24:51;15.00;60.70
48043;DHT22;33988;47.992;8.820;2023-11-19T05:27:18;15.00;60.60
48043;DHT22;33988;47.992;8.820;2023-11-19T05:29:45;15.00;60.70
48043;DHT22;33988;47.992;8.820;2023-11-19T05:32:12;15.10;60.80
48043;DHT22;33988;47.992;8.820;2023-11-19T05:34:39;15.00;60.70
48043;DHT22;33988;47.992;8.820;2023-11-19T05:37:18;15.10;60.80
48043;DHT22;33988;47.992;8.820;2023-11-19T05:39:48;15.10;60.80
48043;DHT22;33988;47.992;8.820;2023-11-19T05:42:17;15.10;60.70
48043;DHT22;33988;47.992;8.820;2023-11-19T05:44:47;15.20;60.70
48043;DHT22;33988;47.992;8.820;2023-11-19T05:47:14;15.20;60.70
48043;DHT22;33988;47.992;8.820;2023-11-19T05:49:41;15.20;60.70
48043;DHT22;33988;47.992;8.820;2023-11-19T05:52:12;15.20;60.70
48043;DHT22;33988;47.992;8.820;2023-11-19T05:54:39;15.20;60.70
48043;DHT22;33988;47.992;8.820;2023-11-19T05:57:11;15.30;60.70
48043;DHT22;33988;47.992;8.820;2023-11-19T05:59:40;15.20;60.60
48043;DHT22;33988;47.992;8.820;2023-11-19T06:02:07;15.00;60.80
48043;DHT22;33988;47.992;8.820;2023-11-19T06:04:34;15.20;60.60
48043;DHT22;33988;47.992;8.820;2023-11-19T06:07:06;15.30;60.50
48043;DHT22;33988;47.992;8.820;2023-11-19T06:09:33;15.30;60.50
48043;DHT22;33988;47.992;8.820;2023-11-19T06:12:00;15.30;60.50
48043;DHT22;33988;47.992;8.820;2023-11-19T06:14:28;15.30;60.50
48043;DHT22;33988;47.992;8.820;2023-11-19T06:16:55;15.30;60.50
48043;DHT22;33988;47.992;8.820;2023-11-19T06:19:22;15.40;60.60
48043;DHT22;33988;47.992;8.820;2023-11-19T06:21:56;15.40;60.60
48043;DHT22;33988;47.992;8.820;2023-11-19T06:24:23;15.40;60.60
48043;DHT22;33988;47.992;8.820;2023-11-19T06:26:50;15.40;60.50
48043;DHT22;33988;47.992;8.820;2023-11-19T06:29:17;15.40;60.50
48043;DHT22;33988;47.992;8.820;2023-11-19T06:31:46;15.40;60.50
48043;DHT22;33988;47.992;8.820;2023-11-19T06:34:15;15.40;60.50
48043;DHT22;33988;47.992;8.820;2023-11-19T06:36:45;15.40;60.50
48043;DHT22;33988;47.992;8.820;2023-11-19T06:39:12;15.40;60.50
48043;DHT22;33988;47.992;8.820;2023-11-19T06:41:47;15.40;60.50
48043;DHT22;33988;47.992;8.820;2023-11-19T06:44:14;15.40;60.50
48043;DHT22;33988;47.992;8.820;2023-11-19T06:46:41;15.50;60.50
48043;DHT22;33988;47.992;8.820;2023-11-19T06:49:08;15.50;60.50
48043;DHT22;33988;47.992;8.820;2023-11-19T06:51:35;15.50;60.60
48043;DHT22;33988;47.992;8.820;2023-11-19T06:54:05;15.50;60.60
48043;DHT22;33988;47.992;8.820;2023-11-19T06:56:32;15.50;60.60
48043;DHT22;33988;47.992;8.820;2023-11-19T06:58:59;15.50;60.60
48043;DHT22;33988;47.992;8.820;2023-11-19T07:01:26;15.50;60.70
48043;DHT22;33988;47.992;8.820;2023-11-19T07:03:53;15.50;60.80
48043;DHT22;33988;47.992;8.820;2023-11-19T07:06:27;15.50;60.90
48043;DHT22;33988;47.992;8.820;2023-11-19T07:09:01;15.50;61.00
48043;DHT22;33988;47.992;8.820;2023-11-19T07:11:37;15.50;61.00
48043;DHT22;33988;47.992;8.820;2023-11-19T07:14:10;15.50;61.00
48043;DHT22;33988;47.992;8.820;2023-11-19T07:16:38;15.50;61.00
48043;DHT22;33988;47.992;8.820;2023-11-19T07:19:08;15.60;61.10
48043;DHT22;33988;47.992;8.820;2023-11-19T07:21:35;15.50;61.10
48043;DHT22;33988;47.992;8.820;2023-11-19T07:24:11;15.60;61.20
48043;DHT22;33988;47.992;8.820;2023-11-19T07:26:43;15.60;61.20
48043;DHT22;33988;47.992;8.820;2023-11-19T07:29:14;15.60;61.30
48043;DHT22;33988;47.992;8.820;2023-11-19T07:31:48;15.60;62.10
48043;DHT22;33988;47.992;8.820;2023-11-19T07:34:18;15.60;61.20
48043;DHT22;33988;47.992;8.820;2023-11-19T07:36:46;15.60;61.20
48043;DHT22;33988;47.992;8.820;2023-11-19T07:39:14;15.70;61.30
48043;DHT22;33988;47.992;8.820;2023-11-19T07:41:41;15.60;61.20
48043;DHT22;33988;47.992;8.820;2023-11-19T07:44:10;15.60;61.20
48043;DHT22;33988;47.992;8.820;2023-11-19T07:46:38;15.60;61.30
48043;DHT22;33988;47.992;8.820;2023-11-19T07:49:05;15.60;61.30
48043;DHT22;33988;47.992;8.820;2023-11-19T07:51:32;15.60;61.30
48043;DHT22;33988;47.992;8.820;2023-11-19T07:53:59;15.60;62.20
48043;DHT22;33988;47.992;8.820;2023-11-19T07:56:28;15.60;61.50
48043;DHT22;33988;47.992;8.820;2023-11-19T07:58:55;15.60;61.40
48043;DHT22;33988;47.992;8.820;2023-11-19T08:01:22;15.60;61.40
48043;DHT22;33988;47.992;8.820;2023-11-19T08:03:50;15.50;61.40
48043;DHT22;33988;47.992;8.820;2023-11-19T08:06:22;15.50;61.50
48043;DHT22;33988;47.992;8.820;2023-11-19T08:08:51;15.40;61.50
48043;DHT22;33988;47.992;8.820;2023-11-19T08:11:19;15.40;61.50
48043;DHT22;33988;47.992;8.820;2023-11-19T08:13:50;15.40;61.70
48043;DHT22;33988;47.992;8.820;2023-11-19T08:16:17;15.40;61.80
48043;DHT22;33988;47.992;8.820;2023-11-19T08:18:46;15.40;61.80
48043;DHT22;33988;47.992;8.820;2023-11-19T08:21:13;15.40;62.70
48043;DHT22;33988;47.992;8.820;2023-11-19T08:23:43;15.40;62.00
48043;DHT22;33988;47.992;8.820;2023-11-19T08:26:10;15.40;62.10
48043;DHT22;33988;47.992;8.820;2023-11-19T08:28:42;15.40;62.10
48043;DHT22;33988;47.992;8.820;2023-11-19T08:31:09;15.40;62.20
48043;DHT22;33988;47.992;8.820;2023-11-19T08:33:36;15.40;62.20
48043;DHT22;33988;47.992;8.820;2023-11-19T08:36:06;15.50;62.20
48043;DHT22;33988;47.992;8.820;2023-11-19T08:38:36;15.50;62.30
48043;DHT22;33988;47.992;8.820;2023-11-19T08:41:03;15.50;62.30
48043;DHT22;33988;47.992;8.820;2023-11-19T08:43:30;15.60;62.40
48043;DHT22;33988;47.992;8.820;2023-11-19T08:45:58;15.60;62.40
48043;DHT22;33988;47.992;8.820;2023-11-19T08:48:25;15.70;62.50
48043;DHT22;33988;47.992;8.820;2023-11-19T08:50:53;15.70;62.50
48043;DHT22;33988;47.992;8.820;2023-11-19T08:53:22;15.70;62.60
48043;DHT22;33988;47.992;8.820;2023-11-19T08:55:51;15.80;62.60
48043;DHT22;33988;47.992;8.820;2023-11-19T08:58:20;15.80;62.50
48043;DHT22;33988;47.992;8.820;2023-11-19T09:00:48;15.90;62.60
48043;DHT22;33988;47.992;8.820;2023-11-19T09:03:15;15.90;62.60
48043;DHT22;33988;47.992;8.820;2023-11-19T09:05:44;16.00;62.60
48043;DHT22;33988;47.992;8.820;2023-11-19T09:08:13;16.00;62.60
48043;DHT22;33988;47.992;8.820;2023-11-19T09:10:40;16.00;62.50
48043;DHT22;33988;47.992;8.820;2023-11-19T09:13:07;16.10;62.50
48043;DHT22;33988;47.992;8.820;2023-11-19T09:15:34;16.10;62.50
48043;DHT22;33988;47.992;8.820;2023-11-19T09:18:01;16.10;62.50
48043;DHT22;33988;47.992;8.820;2023-11-19T09:20:28;16.10;62.60
48043;DHT22;33988;47.992;8.820;2023-11-19T09:22:59;16.20;62.70
48043;DHT22;33988;47.992;8.820;2023-11-19T09:25:26;16.20;62.70
48043;DHT22;33988;47.992;8.820;2023-11-19T09:27:53;16.20;62.80
48043;DHT22;33988;47.992;8.820;2023-11-19T09:30:20;16.30;63.00
48043;DHT22;33988;47.992;8.820;2023-11-19T09:32:49;16.30;63.10
48043;DHT22;33988;47.992;8.820;2023-11-19T09:35:16;16.40;63.30
48043;DHT22;33988;47.992;8.820;2023-11-19T09:37:43;16.40;63.40
48043;DHT22;33988;47.992;8.820;2023-11-19T09:40:10;16.50;63.50
48043;DHT22;33988;47.992;8.820;2023-11-19T09:42:43;16.60;63.60
48043;DHT22;33988;47.992;8.820;2023-11-19T09:45:20;16.60;63.60
48043;DHT22;33988;47.992;8.820;2023-11-19T09:47:47;16.70;63.60
48043;DHT22;33988;47.992;8.820;2023-11-19T09:50:22;16.70;63.50
48043;DHT22;33988;47.992;8.820;2023-11-19T09:52:49;16.80;63.50
48043;DHT22;33988;47.992;8.820;2023-11-19T09:55:19;16.90;63.60
48043;DHT22;33988;47.992;8.820;2023-11-19T09:57:49;17.00;63.70
48043;DHT22;33988;47.992;8.820;2023-11-19T10:00:21;17.00;64.60
48043;DHT22;33988;47.992;8.820;2023-11-19T10:02:50;17.10;63.90
48043;DHT22;33988;47.992;8.820;2023-11-19T10:05:19;17.10;63.90
48043;DHT22;33988;47.992;8.820;2023-11-19T10:07:47;17.20;63.80
48043;DHT22;33988;47.992;8.820;2023-11-19T10:10:14;17.30;63.70
48043;DHT22;33988;47.992;8.820;2023-11-19T10:12:45;17.30;63.50
48043;DHT22;33988;47.992;8.820;2023-11-19T10:15:23;17.40;63.50
48043;DHT22;33988;47.992;8.820;2023-11-19T10:17:57;17.50;63.40
48043;DHT22;33988;47.992;8.820;2023-11-19T10:20:28;17.50;64.10
48043;DHT22;33988;47.992;8.820;2023-11-19T10:22:56;17.50;63.20
48043;DHT22;33988;47.992;8.820;2023-11-19T10:25:27;17.60;63.00
48043;DHT22;33988;47.992;8.820;2023-11-19T10:27:59;17.60;62.90
48043;DHT22;33988;47.992;8.820;2023-11-19T10:30:30;17.40;62.90
48043;DHT22;33988;47.992;8.820;2023-11-19T10:33:10;17.70;62.80
48043;DHT22;33988;47.992;8.820;2023-11-19T10:35:57;17.70;62.50
48043;DHT22;33988;47.992;8.820;2023-11-19T10:38:29;17.70;62.70
48043;DHT22;33988;47.992;8.820;2023-11-19T10:40:57;17.70;62.20
48043;DHT22;33988;47.992;8.820;2023-11-19T10:43:24;17.80;62.20
48043;DHT22;33988;47.992;8.820;2023-11-19T10:45:52;17.80;62.10
48043;DHT22;33988;47.992;8.820;2023-11-19T10:48:21;17.80;62.10
48043;DHT22;33988;47.992;8.820;2023-11-19T10:50:53;17.80;62.10
48043;DHT22;33988;47.992;8.820;2023-11-19T10:53:24;17.80;62.10
48043;DHT22;33988;47.992;8.820;2023-11-19T10:55:56;17.80;62.00
48043;DHT22;33988;47.992;8.820;2023-11-19T10:58:29;17.80;62.00
48043;DHT22;33988;47.992;8.820;2023-11-19T11:01:02;17.80;61.90
48043;DHT22;33988;47.992;8.820;2023-11-19T11:03:35;17.90;61.90
48043;DHT22;33988;47.992;8.820;2023-11-19T11:06:09;17.80;61.90
48043;DHT22;33988;47.992;8.820;2023-11-19T11:08:43;17.80;62.00
48043;DHT22;33988;47.992;8.820;2023-11-19T11:11:12;17.80;62.00
48043;DHT22;33988;47.992;8.820;2023-11-19T11:13:42;17.80;62.00
48043;DHT22;33988;47.992;8.820;2023-11-19T11:16:10;17.80;62.00
48043;DHT22;33988;47.992;8.820;2023-11-19T11:18:38;17.80;62.10
48043;DHT22;33988;47.992;8.820;2023-11-19T11:21:15;17.90;62.10
48043;DHT22;33988;47.992;8.820;2023-11-19T11:32:37;17.80;62.10
48043;DHT22;33988;47.992;8.820;2023-11-19T11:35:51;17.80;62.30
48043;DHT22;33988;47.992;8.820;2023-11-19T11:38:22;17.70;62.30
48043;DHT22;33988;47.992;8.820;2023-11-19T11:41:18;17.80;62.20
48043;DHT22;33988;47.992;8.820;2023-11-19T11:43:55;17.90;62.20
48043;DHT22;33988;47.992;8.820;2023-11-19T11:54:11;17.90;62.20
48043;DHT22;33988;47.992;8.820;2023-11-19T11:56:40;18.00;62.10
48043;DHT22;33988;47.992;8.820;2023-11-19T11:59:14;18.00;62.20
48043;DHT22;33988;47.992;8.820;2023-11-19T12:02:00;18.10;62.20
48043;DHT22;33988;47.992;8.820;2023-11-19T12:04:28;18.10;63.00
48043;DHT22;33988;47.992;8.820;2023-11-19T12:07:19;18.10;62.00
48043;DHT22;33988;47.992;8.820;2023-11-19T12:10:05;18.10;61.90
48043;DHT22;33988;47.992;8.820;2023-11-19T12:12:36;18.20;61.80
48043;DHT22;33988;47.992;8.820;2023-11-19T12:15:08;18.30;61.60
48043;DHT22;33988;47.992;8.820;2023-11-19T12:17:40;18.30;61.50
48043;DHT22;33988;47.992;8.820;2023-11-19T12:20:19;18.10;61.60
48043;DHT22;33988;47.992;8.820;2023-11-19T12:22:53;18.30;61.50
48043;DHT22;33988;47.992;8.820;2023-11-19T12:25:22;18.30;61.30
48043;DHT22;33988;47.992;8.820;2023-11-19T12:27:53;18.40;61.20
48043;DHT22;33988;47.992;8.820;2023-11-19T12:30:24;18.40;61.20
48043;DHT22;33988;47.992;8.820;2023-11-19T12:32:55;18.40;61.10
48043;DHT22;33988;47.992;8.820;2023-11-19T12:35:25;18.40;61.00
48043;DHT22;33988;47.992;8.820;2023-11-19T12:37:52;18.50;61.00
48043;DHT22;33988;47.992;8.820;2023-11-19T12:40:25;18.50;60.90
48043;DHT22;33988;47.992;8.820;2023-11-19T12:42:55;18.50;60.80
48043;DHT22;33988;47.992;8.820;2023-11-19T12:45:23;18.50;60.80
48043;DHT22;33988;47.992;8.820;2023-11-19T12:48:08;18.60;60.70
48043;DHT22;33988;47.992;8.820;2023-11-19T12:50:58;18.50;60.60
48043;DHT22;33988;47.992;8.820;2023-11-19T12:53:28;18.50;60.80
48043;DHT22;33988;47.992;8.820;2023-11-19T12:55:55;18.60;60.90
48043;DHT22;33988;47.992;8.820;2023-11-19T12:58:33;18.60;60.70
48043;DHT22;33988;47.992;8.820;2023-11-19T13:01:05;18.60;60.50
48043;DHT22;33988;47.992;8.820;2023-11-19T13:03:37;18.70;60.40
48043;DHT22;33988;47.992;8.820;2023-11-19T13:06:08;18.70;60.30
48043;DHT22;33988;47.992;8.820;2023-11-19T13:08:44;18.80;60.10
48043;DHT22;33988;47.992;8.820;2023-11-19T13:11:13;18.80;60.10
48043;DHT22;33988;47.992;8.820;2023-11-19T13:16:30;18.80;60.00
48043;DHT22;33988;47.992;8.820;2023-11-19T13:18:58;18.80;60.00
48043;DHT22;33988;47.992;8.820;2023-11-19T13:21:29;18.80;60.00
48043;DHT22;33988;47.992;8.820;2023-11-19T13:23:57;18.80;59.90
48043;DHT22;33988;47.992;8.820;2023-11-19T13:26:26;18.90;60.00
48043;DHT22;33988;47.992;8.820;2023-11-19T13:28:53;18.90;59.90
48043;DHT22;33988;47.992;8.820;2023-11-19T13:31:20;18.90;60.00
48043;DHT22;33988;47.992;8.820;2023-11-19T13:33:48;18.90;59.90
48043;DHT22;33988;47.992;8.820;2023-11-19T13:36:17;18.90;59.90
48043;DHT22;33988;47.992;8.820;2023-11-19T13:38:44;18.90;59.80
48043;DHT22;33988;47.992;8.820;2023-11-19T13:41:14;19.00;59.80
48043;DHT22;33988;47.992;8.820;2023-11-19T13:43:42;19.00;59.80
48043;DHT22;33988;47.992;8.820;2023-11-19T13:46:11;19.00;59.70
48043;DHT22;33988;47.992;8.820;2023-11-19T13:48:41;19.00;59.60
48043;DHT22;33988;47.992;8.820;2023-11-19T13:51:12;19.00;59.50
48043;DHT22;33988;47.992;8.820;2023-11-19T13:53:39;18.80;59.70
48043;DHT22;33988;47.992;8.820;2023-11-19T13:56:12;18.90;59.50
48043;DHT22;33988;47.992;8.820;2023-11-19T13:58:39;19.00;59.40
48043;DHT22;33988;47.992;8.820;2023-11-19T14:01:07;19.00;59.40
48043;DHT22;33988;47.992;8.820;2023-11-19T14:03:39;19.00;59.40
48043;DHT22;33988;47.992;8.820;2023-11-19T14:06:09;18.90;59.30
48043;DHT22;33988;47.992;8.820;2023-11-19T14:08:36;18.90;59.30
48043;DHT22;33988;47.992;8.820;2023-11-19T14:11:04;19.00;59.40
48043;DHT22;33988;47.992;8.820;2023-11-19T14:13:31;18.90;59.30
48043;DHT22;33988;47.992;8.820;2023-11-19T14:15:59;18.90;59.30
48043;DHT22;33988;47.992;8.820;2023-11-19T14:18:26;18.90;59.20
48043;DHT22;33988;47.992;8.820;2023-11-19T14:20:58;18.90;59.20
48043;DHT22;33988;47.992;8.820;2023-11-19T14:23:26;18.90;59.30
48043;DHT22;33988;47.992;8.820;2023-11-19T14:25:58;18.90;59.20
48043;DHT22;33988;47.992;8.820;2023-11-19T14:28:24;18.80;59.20
48043;DHT22;33988;47.992;8.820;2023-11-19T14:30:56;18.80;59.10
48043;DHT22;33988;47.992;8.820;2023-11-19T14:33:24;18.80;59.10
48043;DHT22;33988;47.992;8.820;2023-11-19T14:35:51;18.80;59.10
48043;DHT22;33988;47.992;8.820;2023-11-19T14:38:20;18.80;59.10
48043;DHT22;33988;47.992;8.820;2023-11-19T14:40:47;18.80;59.00
48043;DHT22;33988;47.992;8.820;2023-11-19T14:43:14;18.80;59.00
48043;DHT22;33988;47.992;8.820;2023-11-19T14:45:42;18.80;59.00
48043;DHT22;33988;47.992;8.820;2023-11-19T14:48:18;18.80;59.00
48043;DHT22;33988;47.992;8.820;2023-11-19T14:50:47;18.70;58.80
48043;DHT22;33988;47.992;8.820;2023-11-19T14:53:16;18.70;58.80
48043;DHT22;33988;47.992;8.820;2023-11-19T14:55:46;18.70;58.70
48043;DHT22;33988;47.992;8.820;2023-11-19T14:58:13;18.70;58.60
48043;DHT22;33988;47.992;8.820;2023-11-19T15:00:45;18.70;58.30
48043;DHT22;33988;47.992;8.820;2023-11-19T15:03:13;18.70;58.20
48043;DHT22;33988;47.992;8.820;2023-11-19T15:05:43;18.60;57.90
48043;DHT22;33988;47.992;8.820;2023-11-19T15:08:10;18.70;57.80
48043;DHT22;33988;47.992;8.820;2023-11-19T15:10:41;18.70;57.60
48043;DHT22;33988;47.992;8.820;2023-11-19T15:13:08;18.60;57.50
48043;DHT22;33988;47.992;8.820;2023-11-19T15:15:36;18.60;57.30
48043;DHT22;33988;47.992;8.820;2023-11-19T15:18:05;18.60;57.20
48043;DHT22;33988;47.992;8.820;2023-11-19T15:20:38;18.50;57.20
48043;DHT22;33988;47.992;8.820;2023-11-19T15:23:05;18.50;57.10
48043;DHT22;33988;47.992;8.820;2023-11-19T15:25:35;18.50;57.10
48043;DHT22;33988;47.992;8.820;2023-11-19T15:28:03;18.50;57.00
48043;DHT22;33988;47.992;8.820;2023-11-19T15:30:30;18.40;56.80
48043;DHT22;33988;47.992;8.820;2023-11-19T15:32:57;18.40;56.90
48043;DHT22;33988;47.992;8.820;2023-11-19T15:35:27;18.40;57.40
48043;DHT22;33988;47.992;8.820;2023-11-19T15:37:54;18.30;56.60
48043;DHT22;33988;47.992;8.820;2023-11-19T15:40:23;18.40;56.60
48043;DHT22;33988;47.992;8.820;2023-11-19T15:42:50;18.30;56.50
48043;DHT22;33988;47.992;8.820;2023-11-19T15:45:17;18.30;56.40
48043;DHT22;33988;47.992;8.820;2023-11-19T15:47:46;18.30;56.40
48043;DHT22;33988;47.992;8.820;2023-11-19T15:50:16;18.20;56.20
48043;DHT22;33988;47.992;8.820;2023-11-19T15:52:47;18.20;56.30
48043;DHT22;33988;47.992;8.820;2023-11-19T15:55:19;18.20;56.20
48043;DHT22;33988;47.992;8.820;2023-11-19T15:57:46;17.90;56.40
48043;DHT22;33988;47.992;8.820;2023-11-19T16:00:15;18.10;56.40
48043;DHT22;33988;47.992;8.820;2023-11-19T16:02:43;18.10;56.30
48043;DHT22;33988;47.992;8.820;2023-11-19T16:05:13;18.10;56.20